Crown Princess — ZCDM6 — position and weather

sailwx.info

Track history (hours):
 
Tides and Currents Weather Stations Pressure Air Temp Water Temp Dewpoint Dewpoint Depression Visibility Wind Speed Wind Dir Waves Ship Positions

Crown Princess

Last reported at 2015-Apr-27 20:33 UTC. Time now 2015-Apr-27 20:46 UTC.
Position N 37°49' W 122°24'.

Type: Ship. MMSI: 310500000.

Date/timePositionNaut miles runAvg speedWind from/ knotsBaromVisibWave heightAir tempDewpointWater temp
2015-Apr-27 20:33N 37°49' W 122°24'1312.4
2015-Apr-27 19:33N 37°45' W 122°39'1615.8
2015-Apr-27 18:32N 37°29' W 122°40'1818.6
2015-Apr-27 17:33N 37°11' W 122°43'1918.8
2015-Apr-27 16:33N 36°54' W 122°51'1818.5
2015-Apr-27 15:33N 36°35' W 122°49'1918.3
2015-Apr-27 14:32N 36°18' W 122°41'1919.1
2015-Apr-27 13:33N 36°03' W 122°27'1918.6
2015-Apr-27 12:33N 35°48' W 122°13'1818.2
2015-Apr-27 11:33N 35°34' W 121°59'1818.2
2015-Apr-27 10:33N 35°20' W 121°45'1918.9
2015-Apr-27 09:34N 35°05' W 121°31'1919.3
2015-Apr-27 08:33N 34°50' W 121°16'1918.6
2015-Apr-27 07:33N 34°35' W 121°02'13216.5
2015-Apr-26 23:33N 33°38' W 118°38'1414.3
2015-Apr-26 22:33N 33°28' W 118°25'9 8.5
2015-Apr-26 21:29N 33°21' W 118°19'0 0.2
2015-Apr-26 20:33N 33°21' W 118°19'0 0.0
2015-Apr-26 19:33N 33°21' W 118°19'0 0.0
2015-Apr-26 18:32N 33°21' W 118°19'0 0.0
2015-Apr-26 17:26N 33°21' W 118°19'0 0.0
2015-Apr-26 16:19N 33°21' W 118°19'0 0.1
2015-Apr-26 15:25N 33°21' W 118°19'0 0.0
2015-Apr-26 14:30N 33°21' W 118°19'0 0.1
2015-Apr-26 12:33N 33°21' W 118°19'0 0.0
2015-Apr-26 11:17N 33°21' W 118°19'0 0.1
2015-Apr-26 10:23N 33°21' W 118°19'0 0.0
2015-Apr-26 09:16N 33°21' W 118°19'0 0.1
2015-Apr-26 08:22N 33°21' W 118°19'9 4.8
2015-Apr-26 06:33N 33°15' W 118°11'10 9.0
2015-Apr-26 05:27N 33°07' W 118°05'7 8.3
2015-Apr-26 04:33N 33°02' W 117°58'1110.9
2015-Apr-26 03:33N 33°13' W 118°02'1211.7
2015-Apr-26 02:33N 33°23' W 118°08'2210.7
2015-Apr-26 00:32N 33°44' W 118°16'1 1.1
2015-Apr-25 23:31N 33°45' W 118°17'0 0.0
2015-Apr-25 22:33N 33°45' W 118°17'0 0.0
2015-Apr-25 21:24N 33°45' W 118°17'0 0.0
2015-Apr-25 18:03N 33°45' W 118°17'0 0.0
2015-Apr-25 17:33N 33°45' W 118°17'0 0.0
2015-Apr-25 16:30N 33°45' W 118°17'22 4.4
2015-Apr-25 11:28N 33°25' W 118°06'1011.3
2015-Apr-25 10:33N 33°15' W 118°01'1111.3
2015-Apr-25 09:33N 33°06' W 117°54'1211.6
2015-Apr-25 08:33N 32°54' W 117°50'1211.8
2015-Apr-25 07:33N 32°43' W 117°48'1211.7
2015-Apr-25 06:33N 32°32' W 117°42'1212.0
2015-Apr-25 05:33N 32°22' W 117°34'1212.1
2015-Apr-25 04:32N 32°12' W 117°25'8 0.3
2015-Apr-24 04:33N 32°19' W 117°20'10 9.9
2015-Apr-24 03:33N 32°28' W 117°25'10 9.9
2015-Apr-24 02:33N 32°35' W 117°16'9 9.0
2015-Apr-24 01:33N 32°43' W 117°12'1 1.2
2015-Apr-24 00:33N 32°43' W 117°10'0 0.0
2015-Apr-23 23:33N 32°43' W 117°10'0 0.0
2015-Apr-23 22:32N 32°43' W 117°10'0 0.0
2015-Apr-23 21:29N 32°43' W 117°10'0 0.0
2015-Apr-23 20:32N 32°43' W 117°10'0 0.0
2015-Apr-23 19:31N 32°43' W 117°10'0 0.0
2015-Apr-23 18:31N 32°43' W 117°10'0 0.0
2015-Apr-23 17:33N 32°43' W 117°10'0 0.0
2015-Apr-23 16:33N 32°43' W 117°10'0 0.0
2015-Apr-23 15:32N 32°43' W 117°10'0 0.0
2015-Apr-23 14:32N 32°43' W 117°10'3 3.5
2015-Apr-23 13:33N 32°41' W 117°14'10 9.5
2015-Apr-23 12:34N 32°38' W 117°25'1514.6
2015-Apr-23 11:33N 32°47' W 117°38'1515.3
2015-Apr-23 10:33N 32°60' W 117°49'1616.2
2015-Apr-23 09:34N 33°13' W 118°00'1615.7
2015-Apr-23 08:34N 33°26' W 118°09'212 6.4
2015-Apr-21 23:31N 35°18' W 121°48'1111.0
2015-Apr-21 22:29N 35°27' W 121°57'1010.7
2015-Apr-21 21:31N 35°35' W 122°05'1010.8
2015-Apr-21 20:33N 35°43' W 122°13'1010.4
2015-Apr-21 19:34N 35°51' W 122°21'1010.4
2015-Apr-21 18:33N 35°59' W 122°29'1110.6
2015-Apr-21 17:33N 36°08' W 122°36'1110.4
2015-Apr-21 16:32N 36°17' W 122°43'1310.3
2015-Apr-21 15:14N 36°28' W 122°52'710.5
2015-Apr-21 14:34N 36°34' W 122°57'10 9.8
2015-Apr-21 13:33N 36°44' W 122°57'1110.5
2015-Apr-21 12:28N 36°55' W 122°55'910.4
2015-Apr-21 11:33N 37°04' W 122°53'1010.2
2015-Apr-21 10:33N 37°13' W 122°47'1010.1
2015-Apr-21 09:33N 37°23' W 122°43'1110.5
2015-Apr-21 08:33N 37°34' W 122°44'1010.2
2015-Apr-21 07:33N 37°44' W 122°41'1111.1
2015-Apr-21 06:33N 37°49' W 122°29'4 3.3
2015-Apr-21 05:23N 37°48' W 122°24'0 0.0
2015-Apr-21 04:31N 37°48' W 122°24'0 0.0
2015-Apr-21 03:31N 37°48' W 122°24'0 0.0
2015-Apr-21 02:33N 37°48' W 122°24'0 0.0
2015-Apr-21 01:30N 37°48' W 122°24'0 0.0
2015-Apr-21 00:33N 37°48' W 122°24'0 0.0
2015-Apr-20 23:32N 37°48' W 122°24'0 0.0
2015-Apr-20 22:29N 37°48' W 122°24'0 0.0
2015-Apr-20 21:28N 37°48' W 122°24'0 0.0
2015-Apr-20 20:31N 37°48' W 122°24'0 0.0
2015-Apr-20 19:33N 37°48' W 122°24'0 0.0
2015-Apr-20 18:33N 37°48' W 122°24'0 0.0
2015-Apr-20 17:32N 37°48' W 122°24'0 0.0
2015-Apr-20 16:26N 37°48' W 122°24'0 0.0
2015-Apr-20 15:32N 37°48' W 122°24'1 0.7
2015-Apr-20 14:33N 37°49' W 122°25'1111.3
2015-Apr-20 13:33N 37°46' W 122°38'9 9.4
2015-Apr-20 12:33N 37°36' W 122°40'1111.4
2015-Apr-20 11:33N 37°25' W 122°40'1111.1
2015-Apr-20 10:33N 37°14' W 122°42'1110.8
2015-Apr-20 09:33N 37°04' W 122°48'1111.3
2015-Apr-20 08:33N 36°53' W 122°53'1111.3
2015-Apr-20 07:33N 36°42' W 122°54'1211.7
2015-Apr-20 06:33N 36°31' W 122°49'1111.4
2015-Apr-20 05:33N 36°20' W 122°45'1212.1
2015-Apr-20 04:32N 36°09' W 122°38'1212.0
2015-Apr-20 03:33N 36°00' W 122°29'1211.8
2015-Apr-20 02:33N 35°51' W 122°19'1211.9
2015-Apr-20 01:33N 35°42' W 122°10'1211.6
2015-Apr-20 00:32N 35°33' W 122°01'1211.0
2015-Apr-19 23:26N 35°23' W 121°51'1010.9
2015-Apr-19 22:32N 35°16' W 121°44'1111.0
2015-Apr-19 21:33N 35°08' W 121°35'1211.4
2015-Apr-19 20:33N 34°59' W 121°26'1211.4
2015-Apr-19 19:32N 34°50' W 121°17'1111.6
2015-Apr-19 18:33N 34°41' W 121°09'1111.0
2015-Apr-19 17:33N 34°33' W 120°60'1110.2
2015-Apr-19 16:27N 34°26' W 120°49'58 9.8
2015-Apr-19 10:31N 34°10' W 119°42'9 9.7
2015-Apr-19 09:33N 34°08' W 119°31'9 9.2
2015-Apr-19 08:31N 34°05' W 119°20'9 9.6
2015-Apr-19 07:33N 34°01' W 119°09'10 9.5
2015-Apr-19 06:33N 33°57' W 118°59'10 9.5
2015-Apr-19 05:33N 33°52' W 118°49'12 9.3
2015-Apr-19 04:12N 33°46' W 118°36'6 9.2
2015-Apr-19 03:32N 33°43' W 118°30'9 9.4
2015-Apr-19 02:33N 33°38' W 118°20'6 6.4
2015-Apr-19 01:33N 33°44' W 118°16'1 1.0
2015-Apr-19 00:29N 33°45' W 118°17'0 0.0
2015-Apr-18 23:32N 33°45' W 118°17'0 0.0
2015-Apr-18 22:32N 33°45' W 118°17'0 0.0
2015-Apr-18 21:31N 33°45' W 118°17'0 0.0
2015-Apr-18 20:31N 33°45' W 118°17'0 0.0
2015-Apr-18 19:33N 33°45' W 118°17'0 0.0
2015-Apr-18 18:33N 33°45' W 118°17'0 0.0
2015-Apr-18 17:32N 33°45' W 118°17'0 0.0
2015-Apr-18 16:32N 33°45' W 118°17'0 0.0
2015-Apr-18 15:32N 33°45' W 118°17'0 0.0
2015-Apr-18 14:31N 33°45' W 118°17'1 0.6
2015-Apr-18 13:33N 33°44' W 118°17'9 9.1
2015-Apr-18 12:34N 33°37' W 118°11'1514.9
2015-Apr-18 11:33N 33°23' W 118°05'2121.0
2015-Apr-18 10:33N 33°04' W 117°54'2121.1
2015-Apr-18 09:33N 32°43' W 117°49'2120.9
2015-Apr-18 08:33N 32°23' W 117°41'2121.4
2015-Apr-18 07:33N 32°03' W 117°33'2121.1
2015-Apr-18 06:33N 31°43' W 117°24'4120.5
2015-Apr-18 04:33N 31°04' W 117°08'2220.3
2015-Apr-18 03:30N 30°44' W 116°60'1920.1
2015-Apr-18 02:33N 30°26' W 116°53'2019.9
2015-Apr-18 01:34N 30°08' W 116°45'2019.7
2015-Apr-18 00:34N 29°49' W 116°37'2120.5
2015-Apr-17 23:32N 29°29' W 116°29'2020.5
2015-Apr-17 22:33N 29°10' W 116°21'2120.7
2015-Apr-17 21:32N 28°51' W 116°13'  
Track history (hours):
 
Tides and Currents Weather Stations Pressure Air Temp Water Temp Dewpoint Dewpoint Depression Visibility Wind Speed Wind Dir Waves Ship Positions

Crown Princess

Last reported at 2015-Apr-27 20:33 UTC. Time now 2015-Apr-27 20:46 UTC.
Position N 37°49' W 122°24'.

Type: Ship. MMSI: 310500000.

Date/timePositionNaut miles runAvg speedWind from/ knotsBaromVisibWave heightAir tempDewpointWater temp
2015-Apr-27 20:33N 37°49' W 122°24'1312.4
2015-Apr-27 19:33N 37°45' W 122°39'1615.8
2015-Apr-27 18:32N 37°29' W 122°40'1818.6
2015-Apr-27 17:33N 37°11' W 122°43'1918.8
2015-Apr-27 16:33N 36°54' W 122°51'1818.5
2015-Apr-27 15:33N 36°35' W 122°49'1918.3
2015-Apr-27 14:32N 36°18' W 122°41'1919.1
2015-Apr-27 13:33N 36°03' W 122°27'1918.6
2015-Apr-27 12:33N 35°48' W 122°13'1818.2
2015-Apr-27 11:33N 35°34' W 121°59'1818.2
2015-Apr-27 10:33N 35°20' W 121°45'1918.9
2015-Apr-27 09:34N 35°05' W 121°31'1919.3
2015-Apr-27 08:33N 34°50' W 121°16'1918.6
2015-Apr-27 07:33N 34°35' W 121°02'13216.5
2015-Apr-26 23:33N 33°38' W 118°38'1414.3
2015-Apr-26 22:33N 33°28' W 118°25'9 8.5
2015-Apr-26 21:29N 33°21' W 118°19'0 0.2
2015-Apr-26 20:33N 33°21' W 118°19'0 0.0
2015-Apr-26 19:33N 33°21' W 118°19'0 0.0
2015-Apr-26 18:32N 33°21' W 118°19'0 0.0
2015-Apr-26 17:26N 33°21' W 118°19'0 0.0
2015-Apr-26 16:19N 33°21' W 118°19'0 0.1
2015-Apr-26 15:25N 33°21' W 118°19'0 0.0
2015-Apr-26 14:30N 33°21' W 118°19'0 0.1
2015-Apr-26 12:33N 33°21' W 118°19'0 0.0
2015-Apr-26 11:17N 33°21' W 118°19'0 0.1
2015-Apr-26 10:23N 33°21' W 118°19'0 0.0
2015-Apr-26 09:16N 33°21' W 118°19'0 0.1
2015-Apr-26 08:22N 33°21' W 118°19'9 4.8
2015-Apr-26 06:33N 33°15' W 118°11'10 9.0
2015-Apr-26 05:27N 33°07' W 118°05'7 8.3
2015-Apr-26 04:33N 33°02' W 117°58'1110.9
2015-Apr-26 03:33N 33°13' W 118°02'1211.7
2015-Apr-26 02:33N 33°23' W 118°08'2210.7
2015-Apr-26 00:32N 33°44' W 118°16'1 1.1
2015-Apr-25 23:31N 33°45' W 118°17'0 0.0
2015-Apr-25 22:33N 33°45' W 118°17'0 0.0
2015-Apr-25 21:24N 33°45' W 118°17'0 0.0
2015-Apr-25 18:03N 33°45' W 118°17'0 0.0
2015-Apr-25 17:33N 33°45' W 118°17'0 0.0
2015-Apr-25 16:30N 33°45' W 118°17'22 4.4
2015-Apr-25 11:28N 33°25' W 118°06'1011.3
2015-Apr-25 10:33N 33°15' W 118°01'1111.3
2015-Apr-25 09:33N 33°06' W 117°54'1211.6
2015-Apr-25 08:33N 32°54' W 117°50'1211.8
2015-Apr-25 07:33N 32°43' W 117°48'1211.7
2015-Apr-25 06:33N 32°32' W 117°42'1212.0
2015-Apr-25 05:33N 32°22' W 117°34'1212.1
2015-Apr-25 04:32N 32°12' W 117°25'8 0.3
2015-Apr-24 04:33N 32°19' W 117°20'10 9.9
2015-Apr-24 03:33N 32°28' W 117°25'10 9.9
2015-Apr-24 02:33N 32°35' W 117°16'9 9.0
2015-Apr-24 01:33N 32°43' W 117°12'1 1.2
2015-Apr-24 00:33N 32°43' W 117°10'0 0.0
2015-Apr-23 23:33N 32°43' W 117°10'0 0.0
2015-Apr-23 22:32N 32°43' W 117°10'0 0.0
2015-Apr-23 21:29N 32°43' W 117°10'0 0.0
2015-Apr-23 20:32N 32°43' W 117°10'0 0.0
2015-Apr-23 19:31N 32°43' W 117°10'0 0.0
2015-Apr-23 18:31N 32°43' W 117°10'0 0.0
2015-Apr-23 17:33N 32°43' W 117°10'0 0.0
2015-Apr-23 16:33N 32°43' W 117°10'0 0.0
2015-Apr-23 15:32N 32°43' W 117°10'0 0.0
2015-Apr-23 14:32N 32°43' W 117°10'3 3.5
2015-Apr-23 13:33N 32°41' W 117°14'10 9.5
2015-Apr-23 12:34N 32°38' W 117°25'1514.6
2015-Apr-23 11:33N 32°47' W 117°38'1515.3
2015-Apr-23 10:33N 32°60' W 117°49'1616.2
2015-Apr-23 09:34N 33°13' W 118°00'1615.7
2015-Apr-23 08:34N 33°26' W 118°09'212 6.4
2015-Apr-21 23:31N 35°18' W 121°48'1111.0
2015-Apr-21 22:29N 35°27' W 121°57'1010.7
2015-Apr-21 21:31N 35°35' W 122°05'1010.8
2015-Apr-21 20:33N 35°43' W 122°13'1010.4
2015-Apr-21 19:34N 35°51' W 122°21'1010.4
2015-Apr-21 18:33N 35°59' W 122°29'1110.6
2015-Apr-21 17:33N 36°08' W 122°36'1110.4
2015-Apr-21 16:32N 36°17' W 122°43'1310.3
2015-Apr-21 15:14N 36°28' W 122°52'710.5
2015-Apr-21 14:34N 36°34' W 122°57'10 9.8
2015-Apr-21 13:33N 36°44' W 122°57'1110.5
2015-Apr-21 12:28N 36°55' W 122°55'910.4
2015-Apr-21 11:33N 37°04' W 122°53'1010.2
2015-Apr-21 10:33N 37°13' W 122°47'1010.1
2015-Apr-21 09:33N 37°23' W 122°43'1110.5
2015-Apr-21 08:33N 37°34' W 122°44'1010.2
2015-Apr-21 07:33N 37°44' W 122°41'1111.1
2015-Apr-21 06:33N 37°49' W 122°29'4 3.3
2015-Apr-21 05:23N 37°48' W 122°24'0 0.0
2015-Apr-21 04:31N 37°48' W 122°24'0 0.0
2015-Apr-21 03:31N 37°48' W 122°24'0 0.0
2015-Apr-21 02:33N 37°48' W 122°24'0 0.0
2015-Apr-21 01:30N 37°48' W 122°24'0 0.0
2015-Apr-21 00:33N 37°48' W 122°24'0 0.0
2015-Apr-20 23:32N 37°48' W 122°24'0 0.0
2015-Apr-20 22:29N 37°48' W 122°24'0 0.0
2015-Apr-20 21:28N 37°48' W 122°24'0 0.0
2015-Apr-20 20:31N 37°48' W 122°24'0 0.0
2015-Apr-20 19:33N 37°48' W 122°24'0 0.0
2015-Apr-20 18:33N 37°48' W 122°24'0 0.0
2015-Apr-20 17:32N 37°48' W 122°24'0 0.0
2015-Apr-20 16:26N 37°48' W 122°24'0 0.0
2015-Apr-20 15:32N 37°48' W 122°24'1 0.7
2015-Apr-20 14:33N 37°49' W 122°25'1111.3
2015-Apr-20 13:33N 37°46' W 122°38'9 9.4
2015-Apr-20 12:33N 37°36' W 122°40'1111.4
2015-Apr-20 11:33N 37°25' W 122°40'1111.1
2015-Apr-20 10:33N 37°14' W 122°42'1110.8
2015-Apr-20 09:33N 37°04' W 122°48'1111.3
2015-Apr-20 08:33N 36°53' W 122°53'1111.3
2015-Apr-20 07:33N 36°42' W 122°54'1211.7
2015-Apr-20 06:33N 36°31' W 122°49'1111.4
2015-Apr-20 05:33N 36°20' W 122°45'1212.1
2015-Apr-20 04:32N 36°09' W 122°38'1212.0
2015-Apr-20 03:33N 36°00' W 122°29'1211.8
2015-Apr-20 02:33N 35°51' W 122°19'1211.9
2015-Apr-20 01:33N 35°42' W 122°10'1211.6
2015-Apr-20 00:32N 35°33' W 122°01'1211.0
2015-Apr-19 23:26N 35°23' W 121°51'1010.9
2015-Apr-19 22:32N 35°16' W 121°44'1111.0
2015-Apr-19 21:33N 35°08' W 121°35'1211.4
2015-Apr-19 20:33N 34°59' W 121°26'1211.4
2015-Apr-19 19:32N 34°50' W 121°17'1111.6
2015-Apr-19 18:33N 34°41' W 121°09'1111.0
2015-Apr-19 17:33N 34°33' W 120°60'1110.2
2015-Apr-19 16:27N 34°26' W 120°49'58 9.8
2015-Apr-19 10:31N 34°10' W 119°42'9 9.7
2015-Apr-19 09:33N 34°08' W 119°31'9 9.2
2015-Apr-19 08:31N 34°05' W 119°20'9 9.6
2015-Apr-19 07:33N 34°01' W 119°09'10 9.5
2015-Apr-19 06:33N 33°57' W 118°59'10 9.5
2015-Apr-19 05:33N 33°52' W 118°49'12 9.3
2015-Apr-19 04:12N 33°46' W 118°36'6 9.2
2015-Apr-19 03:32N 33°43' W 118°30'9 9.4
2015-Apr-19 02:33N 33°38' W 118°20'6 6.4
2015-Apr-19 01:33N 33°44' W 118°16'1 1.0
2015-Apr-19 00:29N 33°45' W 118°17'0 0.0
2015-Apr-18 23:32N 33°45' W 118°17'0 0.0
2015-Apr-18 22:32N 33°45' W 118°17'0 0.0
2015-Apr-18 21:31N 33°45' W 118°17'0 0.0
2015-Apr-18 20:31N 33°45' W 118°17'0 0.0
2015-Apr-18 19:33N 33°45' W 118°17'0 0.0
2015-Apr-18 18:33N 33°45' W 118°17'0 0.0
2015-Apr-18 17:32N 33°45' W 118°17'0 0.0
2015-Apr-18 16:32N 33°45' W 118°17'0 0.0
2015-Apr-18 15:32N 33°45' W 118°17'0 0.0
2015-Apr-18 14:31N 33°45' W 118°17'1 0.6
2015-Apr-18 13:33N 33°44' W 118°17'9 9.1
2015-Apr-18 12:34N 33°37' W 118°11'1514.9
2015-Apr-18 11:33N 33°23' W 118°05'2121.0
2015-Apr-18 10:33N 33°04' W 117°54'2121.1
2015-Apr-18 09:33N 32°43' W 117°49'2120.9
2015-Apr-18 08:33N 32°23' W 117°41'2121.4
2015-Apr-18 07:33N 32°03' W 117°33'2121.1
2015-Apr-18 06:33N 31°43' W 117°24'4120.5
2015-Apr-18 04:33N 31°04' W 117°08'2220.3
2015-Apr-18 03:30N 30°44' W 116°60'1920.1
2015-Apr-18 02:33N 30°26' W 116°53'2019.9
2015-Apr-18 01:34N 30°08' W 116°45'2019.7
2015-Apr-18 00:34N 29°49' W 116°37'2120.5
2015-Apr-17 23:32N 29°29' W 116°29'2020.5
2015-Apr-17 22:33N 29°10' W 116°21'2120.7
2015-Apr-17 21:32N 28°51' W 116°13'  

Dump ship's entire track history